sensor_id;sensor_type;location;lat;lon;timestamp;temperature;humidity
790;DHT22;378;48.844;9.156;2023-07-31T00:00:11;17.30;99.90
790;DHT22;378;48.844;9.156;2023-07-31T00:02:38;17.30;99.90
790;DHT22;378;48.844;9.156;2023-07-31T00:05:05;17.30;99.90
790;DHT22;378;48.844;9.156;2023-07-31T00:07:32;17.20;99.90
790;DHT22;378;48.844;9.156;2023-07-31T00:10:00;17.10;99.90
790;DHT22;378;48.844;9.156;2023-07-31T00:12:28;17.10;99.90
790;DHT22;378;48.844;9.156;2023-07-31T00:14:54;17.10;99.90
790;DHT22;378;48.844;9.156;2023-07-31T00:17:22;17.10;99.90
790;DHT22;378;48.844;9.156;2023-07-31T00:19:48;17.10;99.90
790;DHT22;378;48.844;9.156;2023-07-31T00:22:16;17.10;99.90
790;DHT22;378;48.844;9.156;2023-07-31T00:24:43;17.10;99.90
790;DHT22;378;48.844;9.156;2023-07-31T00:27:11;17.10;99.90
790;DHT22;378;48.844;9.156;2023-07-31T00:29:38;17.10;99.90
790;DHT22;378;48.844;9.156;2023-07-31T00:32:05;17.10;99.90
790;DHT22;378;48.844;9.156;2023-07-31T00:34:32;17.10;99.90
790;DHT22;378;48.844;9.156;2023-07-31T00:36:59;17.10;99.90
790;DHT22;378;48.844;9.156;2023-07-31T00:39:26;17.10;99.90
790;DHT22;378;48.844;9.156;2023-07-31T00:41:53;17.00;99.90
790;DHT22;378;48.844;9.156;2023-07-31T00:44:21;16.90;99.90
790;DHT22;378;48.844;9.156;2023-07-31T00:46:48;16.80;99.90
790;DHT22;378;48.844;9.156;2023-07-31T00:49:15;16.90;99.90
790;DHT22;378;48.844;9.156;2023-07-31T00:51:42;16.80;99.90
790;DHT22;378;48.844;9.156;2023-07-31T00:54:09;16.80;99.90
790;DHT22;378;48.844;9.156;2023-07-31T00:56:36;16.70;99.90
790;DHT22;378;48.844;9.156;2023-07-31T00:59:04;16.60;99.90
790;DHT22;378;48.844;9.156;2023-07-31T01:01:32;16.60;99.90
790;DHT22;378;48.844;9.156;2023-07-31T01:03:59;16.60;99.90
790;DHT22;378;48.844;9.156;2023-07-31T01:06:30;16.50;99.90
790;DHT22;378;48.844;9.156;2023-07-31T01:09:02;16.50;99.90
790;DHT22;378;48.844;9.156;2023-07-31T01:11:31;16.60;99.90
790;DHT22;378;48.844;9.156;2023-07-31T01:13:59;16.60;99.90
790;DHT22;378;48.844;9.156;2023-07-31T01:16:26;16.60;99.90
790;DHT22;378;48.844;9.156;2023-07-31T01:18:55;16.60;99.90
790;DHT22;378;48.844;9.156;2023-07-31T01:21:41;16.60;99.90
790;DHT22;378;48.844;9.156;2023-07-31T01:24:23;16.50;99.90
790;DHT22;378;48.844;9.156;2023-07-31T01:26:57;16.40;99.90
790;DHT22;378;48.844;9.156;2023-07-31T01:29:32;16.30;99.90
790;DHT22;378;48.844;9.156;2023-07-31T01:32:01;16.20;99.90
790;DHT22;378;48.844;9.156;2023-07-31T01:34:29;16.20;99.90
790;DHT22;378;48.844;9.156;2023-07-31T01:36:56;16.20;99.90
790;DHT22;378;48.844;9.156;2023-07-31T01:39:24;16.30;99.90
790;DHT22;378;48.844;9.156;2023-07-31T01:41:51;16.30;99.90
790;DHT22;378;48.844;9.156;2023-07-31T01:44:19;16.30;99.90
790;DHT22;378;48.844;9.156;2023-07-31T01:46:45;16.40;99.90
790;DHT22;378;48.844;9.156;2023-07-31T01:49:13;16.40;99.90
790;DHT22;378;48.844;9.156;2023-07-31T01:51:39;16.40;99.90
790;DHT22;378;48.844;9.156;2023-07-31T01:54:06;16.40;99.90
790;DHT22;378;48.844;9.156;2023-07-31T01:56:33;16.40;99.90
790;DHT22;378;48.844;9.156;2023-07-31T01:59:00;16.40;99.90
790;DHT22;378;48.844;9.156;2023-07-31T02:01:28;16.40;99.90
790;DHT22;378;48.844;9.156;2023-07-31T02:03:55;16.40;99.90
790;DHT22;378;48.844;9.156;2023-07-31T02:06:21;16.40;99.90
790;DHT22;378;48.844;9.156;2023-07-31T02:08:49;16.40;99.90
790;DHT22;378;48.844;9.156;2023-07-31T02:11:15;16.40;99.90
790;DHT22;378;48.844;9.156;2023-07-31T02:13:42;16.40;99.90
790;DHT22;378;48.844;9.156;2023-07-31T02:16:09;16.40;99.90
790;DHT22;378;48.844;9.156;2023-07-31T02:18:37;16.40;99.90
790;DHT22;378;48.844;9.156;2023-07-31T02:21:04;16.40;99.90
790;DHT22;378;48.844;9.156;2023-07-31T02:23:31;16.40;99.90
790;DHT22;378;48.844;9.156;2023-07-31T02:25:57;16.40;99.90
790;DHT22;378;48.844;9.156;2023-07-31T02:28:24;16.40;99.90
790;DHT22;378;48.844;9.156;2023-07-31T02:30:51;16.40;99.90
790;DHT22;378;48.844;9.156;2023-07-31T02:33:18;16.40;99.90
790;DHT22;378;48.844;9.156;2023-07-31T02:35:46;16.30;99.90
790;DHT22;378;48.844;9.156;2023-07-31T02:38:13;16.30;99.90
790;DHT22;378;48.844;9.156;2023-07-31T02:40:40;16.30;99.90
790;DHT22;378;48.844;9.156;2023-07-31T02:43:07;16.30;99.90
790;DHT22;378;48.844;9.156;2023-07-31T02:45:34;16.30;99.90
790;DHT22;378;48.844;9.156;2023-07-31T02:48:01;16.30;99.90
790;DHT22;378;48.844;9.156;2023-07-31T02:50:27;16.30;99.90
790;DHT22;378;48.844;9.156;2023-07-31T02:52:56;16.30;99.90
790;DHT22;378;48.844;9.156;2023-07-31T02:55:22;16.30;99.90
790;DHT22;378;48.844;9.156;2023-07-31T02:57:49;16.30;99.90
790;DHT22;378;48.844;9.156;2023-07-31T03:00:17;16.30;99.90
790;DHT22;378;48.844;9.156;2023-07-31T03:02:44;16.30;99.90
790;DHT22;378;48.844;9.156;2023-07-31T03:05:11;16.30;99.90
790;DHT22;378;48.844;9.156;2023-07-31T03:07:38;16.20;99.90
790;DHT22;378;48.844;9.156;2023-07-31T03:10:07;16.20;99.90
790;DHT22;378;48.844;9.156;2023-07-31T03:12:34;16.10;99.90
790;DHT22;378;48.844;9.156;2023-07-31T03:15:01;16.10;99.90
790;DHT22;378;48.844;9.156;2023-07-31T03:17:28;16.10;99.90
790;DHT22;378;48.844;9.156;2023-07-31T03:19:54;16.10;99.90
790;DHT22;378;48.844;9.156;2023-07-31T03:22:21;16.10;99.90
790;DHT22;378;48.844;9.156;2023-07-31T03:24:48;16.10;99.90
790;DHT22;378;48.844;9.156;2023-07-31T03:27:16;16.10;99.90
790;DHT22;378;48.844;9.156;2023-07-31T03:29:43;16.10;99.90
790;DHT22;378;48.844;9.156;2023-07-31T03:32:10;16.10;99.90
790;DHT22;378;48.844;9.156;2023-07-31T03:34:36;16.30;99.90
790;DHT22;378;48.844;9.156;2023-07-31T03:37:04;16.30;99.90
790;DHT22;378;48.844;9.156;2023-07-31T03:39:31;16.20;99.90
790;DHT22;378;48.844;9.156;2023-07-31T03:41:58;16.10;99.90
790;DHT22;378;48.844;9.156;2023-07-31T03:44:26;16.20;99.90
790;DHT22;378;48.844;9.156;2023-07-31T03:46:53;16.10;99.90
790;DHT22;378;48.844;9.156;2023-07-31T03:49:19;16.00;99.90
790;DHT22;378;48.844;9.156;2023-07-31T03:51:46;16.00;99.90
790;DHT22;378;48.844;9.156;2023-07-31T03:54:13;16.10;99.90
790;DHT22;378;48.844;9.156;2023-07-31T03:56:40;16.10;99.90
790;DHT22;378;48.844;9.156;2023-07-31T03:59:07;16.10;99.90
790;DHT22;378;48.844;9.156;2023-07-31T04:01:35;16.20;99.90
790;DHT22;378;48.844;9.156;2023-07-31T04:04:02;16.10;99.90
790;DHT22;378;48.844;9.156;2023-07-31T04:06:29;16.10;99.90
790;DHT22;378;48.844;9.156;2023-07-31T04:08:56;16.10;99.90
790;DHT22;378;48.844;9.156;2023-07-31T04:11:22;16.10;99.90
790;DHT22;378;48.844;9.156;2023-07-31T04:13:49;16.10;99.90
790;DHT22;378;48.844;9.156;2023-07-31T04:16:16;16.00;99.90
790;DHT22;378;48.844;9.156;2023-07-31T04:18:44;16.10;99.90
790;DHT22;378;48.844;9.156;2023-07-31T04:21:11;16.10;99.90
790;DHT22;378;48.844;9.156;2023-07-31T04:23:38;16.10;99.90
790;DHT22;378;48.844;9.156;2023-07-31T04:26:05;16.20;99.90
790;DHT22;378;48.844;9.156;2023-07-31T04:28:32;16.30;99.90
790;DHT22;378;48.844;9.156;2023-07-31T04:30:59;16.30;99.90
790;DHT22;378;48.844;9.156;2023-07-31T04:33:25;16.40;99.90
790;DHT22;378;48.844;9.156;2023-07-31T04:35:54;16.40;99.90
790;DHT22;378;48.844;9.156;2023-07-31T04:38:21;16.40;99.90
790;DHT22;378;48.844;9.156;2023-07-31T04:40:48;16.50;99.90
790;DHT22;378;48.844;9.156;2023-07-31T04:43:15;16.50;99.90
790;DHT22;378;48.844;9.156;2023-07-31T04:45:44;16.50;99.90
790;DHT22;378;48.844;9.156;2023-07-31T04:48:12;16.60;99.90
790;DHT22;378;48.844;9.156;2023-07-31T04:50:39;16.70;99.90
790;DHT22;378;48.844;9.156;2023-07-31T04:53:07;16.70;99.90
790;DHT22;378;48.844;9.156;2023-07-31T04:55:34;16.70;99.90
790;DHT22;378;48.844;9.156;2023-07-31T04:58:01;16.80;99.90
790;DHT22;378;48.844;9.156;2023-07-31T05:00:28;16.80;99.90
790;DHT22;378;48.844;9.156;2023-07-31T05:02:55;16.80;99.90
790;DHT22;378;48.844;9.156;2023-07-31T05:05:22;16.70;99.90
790;DHT22;378;48.844;9.156;2023-07-31T05:07:49;16.80;99.90
790;DHT22;378;48.844;9.156;2023-07-31T05:10:17;16.80;99.90
790;DHT22;378;48.844;9.156;2023-07-31T05:12:44;16.80;99.90
790;DHT22;378;48.844;9.156;2023-07-31T05:15:11;16.80;99.90
790;DHT22;378;48.844;9.156;2023-07-31T05:17:38;16.90;99.90
790;DHT22;378;48.844;9.156;2023-07-31T05:20:06;16.90;99.90
790;DHT22;378;48.844;9.156;2023-07-31T05:22:33;16.90;99.90
790;DHT22;378;48.844;9.156;2023-07-31T05:25:00;17.00;99.90
790;DHT22;378;48.844;9.156;2023-07-31T05:27:28;16.90;99.90
790;DHT22;378;48.844;9.156;2023-07-31T05:29:55;16.90;99.90
790;DHT22;378;48.844;9.156;2023-07-31T05:32:22;17.00;99.90
790;DHT22;378;48.844;9.156;2023-07-31T05:34:51;17.00;99.90
790;DHT22;378;48.844;9.156;2023-07-31T05:37:17;17.10;99.90
790;DHT22;378;48.844;9.156;2023-07-31T05:39:44;17.10;99.90
790;DHT22;378;48.844;9.156;2023-07-31T05:42:11;17.20;99.90
790;DHT22;378;48.844;9.156;2023-07-31T05:44:39;17.10;99.90
790;DHT22;378;48.844;9.156;2023-07-31T05:47:06;17.10;99.90
790;DHT22;378;48.844;9.156;2023-07-31T05:49:34;17.30;99.90
790;DHT22;378;48.844;9.156;2023-07-31T05:52:00;17.30;99.90
790;DHT22;378;48.844;9.156;2023-07-31T05:54:27;17.30;99.90
790;DHT22;378;48.844;9.156;2023-07-31T05:56:54;17.40;99.90
790;DHT22;378;48.844;9.156;2023-07-31T05:59:21;17.30;99.90
790;DHT22;378;48.844;9.156;2023-07-31T06:01:49;17.30;99.90
790;DHT22;378;48.844;9.156;2023-07-31T06:04:16;17.30;99.90
790;DHT22;378;48.844;9.156;2023-07-31T06:06:43;17.30;99.90
790;DHT22;378;48.844;9.156;2023-07-31T06:09:10;17.50;99.90
790;DHT22;378;48.844;9.156;2023-07-31T06:11:37;17.50;99.90
790;DHT22;378;48.844;9.156;2023-07-31T06:14:04;17.50;99.90
790;DHT22;378;48.844;9.156;2023-07-31T06:16:30;17.50;99.90
790;DHT22;378;48.844;9.156;2023-07-31T06:18:59;17.50;99.90
790;DHT22;378;48.844;9.156;2023-07-31T06:21:25;17.60;99.90
790;DHT22;378;48.844;9.156;2023-07-31T06:23:52;17.70;99.90
790;DHT22;378;48.844;9.156;2023-07-31T06:26:19;17.70;99.90
790;DHT22;378;48.844;9.156;2023-07-31T06:28:46;17.80;99.90
790;DHT22;378;48.844;9.156;2023-07-31T06:31:13;17.80;99.90
790;DHT22;378;48.844;9.156;2023-07-31T06:33:39;17.90;99.90
790;DHT22;378;48.844;9.156;2023-07-31T06:36:11;18.00;99.90
790;DHT22;378;48.844;9.156;2023-07-31T06:38:38;18.10;99.90
790;DHT22;378;48.844;9.156;2023-07-31T06:41:05;18.20;99.90
790;DHT22;378;48.844;9.156;2023-07-31T06:43:34;18.20;99.90
790;DHT22;378;48.844;9.156;2023-07-31T06:46:04;18.20;99.90
790;DHT22;378;48.844;9.156;2023-07-31T06:48:31;18.20;99.90
790;DHT22;378;48.844;9.156;2023-07-31T06:50:58;18.20;99.90
790;DHT22;378;48.844;9.156;2023-07-31T06:53:27;18.30;99.90
790;DHT22;378;48.844;9.156;2023-07-31T06:55:54;18.40;99.90
790;DHT22;378;48.844;9.156;2023-07-31T06:58:21;18.50;99.90
790;DHT22;378;48.844;9.156;2023-07-31T07:00:48;18.50;99.90
790;DHT22;378;48.844;9.156;2023-07-31T07:03:17;18.50;99.90
790;DHT22;378;48.844;9.156;2023-07-31T07:05:44;18.70;99.90
790;DHT22;378;48.844;9.156;2023-07-31T07:08:11;18.70;99.90
790;DHT22;378;48.844;9.156;2023-07-31T07:10:39;18.80;99.90
790;DHT22;378;48.844;9.156;2023-07-31T07:13:05;18.80;99.90
790;DHT22;378;48.844;9.156;2023-07-31T07:15:32;18.90;99.90
790;DHT22;378;48.844;9.156;2023-07-31T07:17:59;18.90;99.90
790;DHT22;378;48.844;9.156;2023-07-31T07:20:26;19.00;99.90
790;DHT22;378;48.844;9.156;2023-07-31T07:22:53;19.20;99.90
790;DHT22;378;48.844;9.156;2023-07-31T07:25:19;19.30;99.90
790;DHT22;378;48.844;9.156;2023-07-31T07:27:47;19.40;99.90
790;DHT22;378;48.844;9.156;2023-07-31T07:30:14;19.40;99.90
790;DHT22;378;48.844;9.156;2023-07-31T07:32:41;19.40;99.90
790;DHT22;378;48.844;9.156;2023-07-31T07:35:09;19.30;99.90
790;DHT22;378;48.844;9.156;2023-07-31T07:37:36;19.30;99.90
790;DHT22;378;48.844;9.156;2023-07-31T07:40:03;19.30;99.90
790;DHT22;378;48.844;9.156;2023-07-31T07:42:31;19.30;99.90
790;DHT22;378;48.844;9.156;2023-07-31T07:44:59;19.30;99.90
790;DHT22;378;48.844;9.156;2023-07-31T07:47:26;19.40;99.90
790;DHT22;378;48.844;9.156;2023-07-31T07:49:53;19.30;99.90
790;DHT22;378;48.844;9.156;2023-07-31T07:52:19;19.40;99.90
790;DHT22;378;48.844;9.156;2023-07-31T07:54:46;19.40;99.90
790;DHT22;378;48.844;9.156;2023-07-31T07:57:13;19.50;99.90
790;DHT22;378;48.844;9.156;2023-07-31T07:59:40;19.50;99.90
790;DHT22;378;48.844;9.156;2023-07-31T08:02:08;19.50;99.90
790;DHT22;378;48.844;9.156;2023-07-31T08:04:35;19.60;99.90
790;DHT22;378;48.844;9.156;2023-07-31T08:07:03;19.70;99.90
790;DHT22;378;48.844;9.156;2023-07-31T08:09:30;19.90;99.90
790;DHT22;378;48.844;9.156;2023-07-31T08:11:57;19.90;99.90
790;DHT22;378;48.844;9.156;2023-07-31T08:14:27;19.80;99.90
790;DHT22;378;48.844;9.156;2023-07-31T08:16:55;19.70;99.90
790;DHT22;378;48.844;9.156;2023-07-31T08:19:23;19.80;99.90
790;DHT22;378;48.844;9.156;2023-07-31T08:21:50;19.80;99.90
790;DHT22;378;48.844;9.156;2023-07-31T08:24:17;19.80;99.90
790;DHT22;378;48.844;9.156;2023-07-31T08:26:44;19.90;99.90
790;DHT22;378;48.844;9.156;2023-07-31T08:29:11;19.80;99.90
790;DHT22;378;48.844;9.156;2023-07-31T08:31:38;19.90;99.90
790;DHT22;378;48.844;9.156;2023-07-31T08:34:05;20.00;99.90
790;DHT22;378;48.844;9.156;2023-07-31T08:36:33;20.20;99.90
790;DHT22;378;48.844;9.156;2023-07-31T08:38:59;20.40;99.90
790;DHT22;378;48.844;9.156;2023-07-31T08:41:27;20.40;99.90
790;DHT22;378;48.844;9.156;2023-07-31T08:43:55;20.50;99.90
790;DHT22;378;48.844;9.156;2023-07-31T08:46:23;20.60;99.90
790;DHT22;378;48.844;9.156;2023-07-31T08:48:51;20.60;99.90
790;DHT22;378;48.844;9.156;2023-07-31T08:51:19;20.40;99.90
790;DHT22;378;48.844;9.156;2023-07-31T08:53:48;20.50;99.90
790;DHT22;378;48.844;9.156;2023-07-31T08:56:15;20.60;99.90
790;DHT22;378;48.844;9.156;2023-07-31T08:58:43;20.70;99.90
790;DHT22;378;48.844;9.156;2023-07-31T09:01:10;20.80;99.90
790;DHT22;378;48.844;9.156;2023-07-31T09:03:39;20.90;99.90
790;DHT22;378;48.844;9.156;2023-07-31T09:06:07;20.80;99.90
790;DHT22;378;48.844;9.156;2023-07-31T09:08:34;20.90;99.90
790;DHT22;378;48.844;9.156;2023-07-31T09:11:03;20.90;99.90
790;DHT22;378;48.844;9.156;2023-07-31T09:13:31;20.90;99.90
790;DHT22;378;48.844;9.156;2023-07-31T09:15:58;20.80;99.90
790;DHT22;378;48.844;9.156;2023-07-31T09:18:25;20.70;99.90
790;DHT22;378;48.844;9.156;2023-07-31T09:21:02;20.60;99.90
790;DHT22;378;48.844;9.156;2023-07-31T09:23:40;20.50;99.90
790;DHT22;378;48.844;9.156;2023-07-31T09:26:08;20.40;99.90
790;DHT22;378;48.844;9.156;2023-07-31T09:28:36;20.40;99.90
790;DHT22;378;48.844;9.156;2023-07-31T09:31:03;20.40;99.90
790;DHT22;378;48.844;9.156;2023-07-31T09:33:29;20.50;99.90
790;DHT22;378;48.844;9.156;2023-07-31T09:35:58;20.60;99.90
790;DHT22;378;48.844;9.156;2023-07-31T09:38:26;20.70;99.90
790;DHT22;378;48.844;9.156;2023-07-31T09:40:53;20.80;99.90
790;DHT22;378;48.844;9.156;2023-07-31T09:43:22;20.80;99.90
790;DHT22;378;48.844;9.156;2023-07-31T09:45:56;20.80;99.90
790;DHT22;378;48.844;9.156;2023-07-31T09:48:24;20.90;99.90
790;DHT22;378;48.844;9.156;2023-07-31T09:50:53;21.00;99.90
790;DHT22;378;48.844;9.156;2023-07-31T09:53:28;21.00;99.90
790;DHT22;378;48.844;9.156;2023-07-31T09:55:58;21.00;99.90
790;DHT22;378;48.844;9.156;2023-07-31T09:58:28;21.10;99.90
790;DHT22;378;48.844;9.156;2023-07-31T10:00:57;21.20;99.90
790;DHT22;378;48.844;9.156;2023-07-31T10:03:26;21.20;99.90
790;DHT22;378;48.844;9.156;2023-07-31T10:05:55;21.20;99.90
790;DHT22;378;48.844;9.156;2023-07-31T10:08:27;21.20;99.90
790;DHT22;378;48.844;9.156;2023-07-31T10:10:59;21.10;99.90
790;DHT22;378;48.844;9.156;2023-07-31T10:13:28;21.20;99.90
790;DHT22;378;48.844;9.156;2023-07-31T10:15:59;21.20;99.90
790;DHT22;378;48.844;9.156;2023-07-31T10:18:27;21.20;99.90
790;DHT22;378;48.844;9.156;2023-07-31T10:20:55;21.30;99.90
790;DHT22;378;48.844;9.156;2023-07-31T10:23:23;21.30;99.90
790;DHT22;378;48.844;9.156;2023-07-31T10:25:53;21.30;99.90
790;DHT22;378;48.844;9.156;2023-07-31T10:28:21;21.20;99.90
790;DHT22;378;48.844;9.156;2023-07-31T10:30:49;21.20;99.90
790;DHT22;378;48.844;9.156;2023-07-31T10:33:17;21.30;99.90
790;DHT22;378;48.844;9.156;2023-07-31T10:35:47;21.30;99.90
790;DHT22;378;48.844;9.156;2023-07-31T10:38:14;21.20;99.90
790;DHT22;378;48.844;9.156;2023-07-31T10:40:42;21.30;99.90
790;DHT22;378;48.844;9.156;2023-07-31T10:43:23;21.30;99.90
790;DHT22;378;48.844;9.156;2023-07-31T10:45:53;21.40;99.90
790;DHT22;378;48.844;9.156;2023-07-31T10:48:20;21.50;99.90
790;DHT22;378;48.844;9.156;2023-07-31T10:50:49;21.40;99.90
790;DHT22;378;48.844;9.156;2023-07-31T10:53:27;21.40;99.90
790;DHT22;378;48.844;9.156;2023-07-31T10:55:57;21.30;99.90
790;DHT22;378;48.844;9.156;2023-07-31T10:58:25;21.40;99.90
790;DHT22;378;48.844;9.156;2023-07-31T11:00:57;21.40;99.90
790;DHT22;378;48.844;9.156;2023-07-31T11:03:25;21.50;99.90
790;DHT22;378;48.844;9.156;2023-07-31T11:05:55;21.60;99.90
790;DHT22;378;48.844;9.156;2023-07-31T11:08:28;21.70;99.90
790;DHT22;378;48.844;9.156;2023-07-31T11:11:06;21.90;99.90
790;DHT22;378;48.844;9.156;2023-07-31T11:13:39;22.10;99.90
790;DHT22;378;48.844;9.156;2023-07-31T11:16:07;22.10;99.90
790;DHT22;378;48.844;9.156;2023-07-31T11:18:35;22.20;99.90
790;DHT22;378;48.844;9.156;2023-07-31T11:21:02;22.20;99.90
790;DHT22;378;48.844;9.156;2023-07-31T11:23:29;22.20;99.90
790;DHT22;378;48.844;9.156;2023-07-31T11:25:59;22.20;99.90
790;DHT22;378;48.844;9.156;2023-07-31T11:28:26;22.20;99.90
790;DHT22;378;48.844;9.156;2023-07-31T11:30:54;22.30;99.90
790;DHT22;378;48.844;9.156;2023-07-31T11:33:23;22.30;99.90
790;DHT22;378;48.844;9.156;2023-07-31T11:35:50;22.20;99.90
790;DHT22;378;48.844;9.156;2023-07-31T11:38:21;22.30;99.90
790;DHT22;378;48.844;9.156;2023-07-31T11:40:49;22.30;99.90
790;DHT22;378;48.844;9.156;2023-07-31T11:43:17;22.20;99.90
790;DHT22;378;48.844;9.156;2023-07-31T11:45:46;22.20;99.90
790;DHT22;378;48.844;9.156;2023-07-31T11:48:19;22.20;99.90
790;DHT22;378;48.844;9.156;2023-07-31T11:50:48;22.20;99.90
790;DHT22;378;48.844;9.156;2023-07-31T11:53:17;22.20;99.90
790;DHT22;378;48.844;9.156;2023-07-31T11:55:45;22.40;99.90
790;DHT22;378;48.844;9.156;2023-07-31T11:58:13;22.30;99.90
790;DHT22;378;48.844;9.156;2023-07-31T12:00:41;22.20;99.90
790;DHT22;378;48.844;9.156;2023-07-31T12:03:08;22.30;99.90
790;DHT22;378;48.844;9.156;2023-07-31T12:05:36;22.30;99.90
790;DHT22;378;48.844;9.156;2023-07-31T12:08:09;22.30;99.90
790;DHT22;378;48.844;9.156;2023-07-31T12:10:36;22.30;99.90
790;DHT22;378;48.844;9.156;2023-07-31T12:13:04;22.40;99.90
790;DHT22;378;48.844;9.156;2023-07-31T12:15:38;22.30;99.90
790;DHT22;378;48.844;9.156;2023-07-31T12:18:07;22.30;99.90
790;DHT22;378;48.844;9.156;2023-07-31T12:20:35;22.20;99.90
790;DHT22;378;48.844;9.156;2023-07-31T12:23:03;22.20;99.90
790;DHT22;378;48.844;9.156;2023-07-31T12:25:31;22.20;99.90
790;DHT22;378;48.844;9.156;2023-07-31T12:28:04;22.20;99.90
790;DHT22;378;48.844;9.156;2023-07-31T12:30:33;22.40;99.90
790;DHT22;378;48.844;9.156;2023-07-31T12:33:03;22.50;99.90
790;DHT22;378;48.844;9.156;2023-07-31T12:35:36;22.60;99.90
790;DHT22;378;48.844;9.156;2023-07-31T12:38:04;22.70;99.90
790;DHT22;378;48.844;9.156;2023-07-31T12:40:31;22.80;99.90
790;DHT22;378;48.844;9.156;2023-07-31T12:43:00;22.70;99.90
790;DHT22;378;48.844;9.156;2023-07-31T12:45:27;22.50;99.90
790;DHT22;378;48.844;9.156;2023-07-31T12:47:54;22.50;99.90
790;DHT22;378;48.844;9.156;2023-07-31T12:50:21;22.40;99.90
790;DHT22;378;48.844;9.156;2023-07-31T12:52:49;22.40;99.90
790;DHT22;378;48.844;9.156;2023-07-31T12:55:17;22.40;99.90
790;DHT22;378;48.844;9.156;2023-07-31T12:57:44;22.40;99.90
790;DHT22;378;48.844;9.156;2023-07-31T13:00:12;22.30;99.90
790;DHT22;378;48.844;9.156;2023-07-31T13:02:39;22.20;99.90
790;DHT22;378;48.844;9.156;2023-07-31T13:05:06;22.30;99.90
790;DHT22;378;48.844;9.156;2023-07-31T13:07:33;22.20;99.90
790;DHT22;378;48.844;9.156;2023-07-31T13:10:00;22.10;99.90
790;DHT22;378;48.844;9.156;2023-07-31T13:12:28;22.20;99.90
790;DHT22;378;48.844;9.156;2023-07-31T13:14:55;22.10;99.90
790;DHT22;378;48.844;9.156;2023-07-31T13:17:22;22.20;99.90
790;DHT22;378;48.844;9.156;2023-07-31T13:19:48;22.10;99.90
790;DHT22;378;48.844;9.156;2023-07-31T13:22:15;22.10;99.90
790;DHT22;378;48.844;9.156;2023-07-31T13:24:42;22.10;99.90
790;DHT22;378;48.844;9.156;2023-07-31T13:27:09;22.00;99.90
790;DHT22;378;48.844;9.156;2023-07-31T13:29:37;22.10;99.90
790;DHT22;378;48.844;9.156;2023-07-31T13:32:04;22.20;99.90
790;DHT22;378;48.844;9.156;2023-07-31T13:34:31;22.40;99.90
790;DHT22;378;48.844;9.156;2023-07-31T13:36:58;22.50;99.90
790;DHT22;378;48.844;9.156;2023-07-31T13:39:25;22.70;99.90
790;DHT22;378;48.844;9.156;2023-07-31T13:41:51;22.80;99.90
790;DHT22;378;48.844;9.156;2023-07-31T13:44:18;23.00;99.90
790;DHT22;378;48.844;9.156;2023-07-31T13:46:45;23.10;99.90
790;DHT22;378;48.844;9.156;2023-07-31T13:49:12;23.20;99.90
790;DHT22;378;48.844;9.156;2023-07-31T13:51:39;23.30;99.90
790;DHT22;378;48.844;9.156;2023-07-31T13:54:06;23.20;99.90
790;DHT22;378;48.844;9.156;2023-07-31T13:56:33;23.20;99.90
790;DHT22;378;48.844;9.156;2023-07-31T13:59:00;23.20;99.90
790;DHT22;378;48.844;9.156;2023-07-31T14:01:27;23.40;99.90
790;DHT22;378;48.844;9.156;2023-07-31T14:03:55;23.10;99.90
790;DHT22;378;48.844;9.156;2023-07-31T14:06:22;23.10;99.90
790;DHT22;378;48.844;9.156;2023-07-31T14:08:49;23.20;99.90
790;DHT22;378;48.844;9.156;2023-07-31T14:11:15;23.30;99.90
790;DHT22;378;48.844;9.156;2023-07-31T14:13:42;23.20;99.90
790;DHT22;378;48.844;9.156;2023-07-31T14:16:09;23.10;99.90
790;DHT22;378;48.844;9.156;2023-07-31T14:18:36;23.20;99.90
790;DHT22;378;48.844;9.156;2023-07-31T14:21:04;23.10;99.90
790;DHT22;378;48.844;9.156;2023-07-31T14:23:31;23.20;99.90
790;DHT22;378;48.844;9.156;2023-07-31T14:25:58;23.40;99.90
790;DHT22;378;48.844;9.156;2023-07-31T14:28:25;23.50;99.90
790;DHT22;378;48.844;9.156;2023-07-31T14:30:51;23.60;99.90
790;DHT22;378;48.844;9.156;2023-07-31T14:33:18;23.70;99.90
790;DHT22;378;48.844;9.156;2023-07-31T14:35:45;23.60;99.90
790;DHT22;378;48.844;9.156;2023-07-31T14:38:13;23.50;99.90
790;DHT22;378;48.844;9.156;2023-07-31T14:40:41;23.60;99.90
790;DHT22;378;48.844;9.156;2023-07-31T14:43:08;23.60;99.90
790;DHT22;378;48.844;9.156;2023-07-31T14:45:34;23.50;99.90
790;DHT22;378;48.844;9.156;2023-07-31T14:48:01;23.40;99.90
790;DHT22;378;48.844;9.156;2023-07-31T14:50:28;23.30;99.90
790;DHT22;378;48.844;9.156;2023-07-31T14:52:55;23.20;99.90
790;DHT22;378;48.844;9.156;2023-07-31T14:55:23;23.30;99.90
790;DHT22;378;48.844;9.156;2023-07-31T14:57:50;23.30;99.90
790;DHT22;378;48.844;9.156;2023-07-31T15:00:17;23.20;99.90
790;DHT22;378;48.844;9.156;2023-07-31T15:02:43;23.30;99.90
790;DHT22;378;48.844;9.156;2023-07-31T15:05:10;23.20;99.90
790;DHT22;378;48.844;9.156;2023-07-31T15:07:37;23.50;99.90
790;DHT22;378;48.844;9.156;2023-07-31T15:10:05;23.50;99.90
790;DHT22;378;48.844;9.156;2023-07-31T15:12:33;23.70;99.90
790;DHT22;378;48.844;9.156;2023-07-31T15:15:00;24.20;99.90
790;DHT22;378;48.844;9.156;2023-07-31T15:17:27;24.50;99.90
790;DHT22;378;48.844;9.156;2023-07-31T15:19:55;24.30;99.90
790;DHT22;378;48.844;9.156;2023-07-31T15:22:22;23.90;99.90
790;DHT22;378;48.844;9.156;2023-07-31T15:24:50;23.80;99.90
790;DHT22;378;48.844;9.156;2023-07-31T15:27:16;23.80;99.90
790;DHT22;378;48.844;9.156;2023-07-31T15:29:45;23.80;99.90
790;DHT22;378;48.844;9.156;2023-07-31T15:32:11;23.80;99.90
790;DHT22;378;48.844;9.156;2023-07-31T15:34:38;23.70;99.90
790;DHT22;378;48.844;9.156;2023-07-31T15:37:05;23.80;99.90
790;DHT22;378;48.844;9.156;2023-07-31T15:39:32;23.90;99.90
790;DHT22;378;48.844;9.156;2023-07-31T15:41:59;23.80;99.90
790;DHT22;378;48.844;9.156;2023-07-31T15:44:25;23.80;99.90
790;DHT22;378;48.844;9.156;2023-07-31T15:46:53;23.90;99.90
790;DHT22;378;48.844;9.156;2023-07-31T15:49:20;23.80;99.90
790;DHT22;378;48.844;9.156;2023-07-31T15:51:47;24.00;99.90
790;DHT22;378;48.844;9.156;2023-07-31T15:54:14;24.10;99.90
790;DHT22;378;48.844;9.156;2023-07-31T15:56:41;24.20;99.90
790;DHT22;378;48.844;9.156;2023-07-31T15:59:08;24.00;99.90
790;DHT22;378;48.844;9.156;2023-07-31T16:01:34;24.00;99.90
790;DHT22;378;48.844;9.156;2023-07-31T16:04:03;24.00;99.90
790;DHT22;378;48.844;9.156;2023-07-31T16:06:29;24.10;99.90
790;DHT22;378;48.844;9.156;2023-07-31T16:08:56;24.20;99.90
790;DHT22;378;48.844;9.156;2023-07-31T16:11:23;24.20;99.90
790;DHT22;378;48.844;9.156;2023-07-31T16:13:50;24.20;99.90
790;DHT22;378;48.844;9.156;2023-07-31T16:16:17;24.10;99.90
790;DHT22;378;48.844;9.156;2023-07-31T16:18:45;24.00;99.90
790;DHT22;378;48.844;9.156;2023-07-31T16:21:13;23.90;99.90
790;DHT22;378;48.844;9.156;2023-07-31T16:23:40;23.80;99.90
790;DHT22;378;48.844;9.156;2023-07-31T16:26:07;23.70;99.90
790;DHT22;378;48.844;9.156;2023-07-31T16:28:33;23.50;99.90
790;DHT22;378;48.844;9.156;2023-07-31T16:31:00;23.30;99.90
790;DHT22;378;48.844;9.156;2023-07-31T16:33:27;23.20;99.90
790;DHT22;378;48.844;9.156;2023-07-31T16:35:54;23.10;99.90